AAY394 KMCI-KJKA
Flight info
| Callsign | AAY394 |
|---|---|
| Flight time | 1h 35m |
| Altitude | 39000 |
| Route | RACER8 BUM LIT MHZ BFM VUSRY |
| Aircraft | A319/M-SDE3FGHIRWY/LB1 |
Departure
| Time | 2026-04-12 03:18 |
|---|---|
| Airport | Kansas City International Airport (KMCI) |
Arrival
| Time | 2026-04-12 04:53 |
|---|---|
| Airport | Jack Edwards National Airport (KJKA) |
| Time | Latitude | Longitude | Altitude | Speed | Heading |
|---|---|---|---|---|---|
| 2026-04-12 02:49 | 39.29710 | -94.72052 | 1015 ft | 0 kts | 102° |
| 2026-04-12 03:08 | 39.29715 | -94.72076 | 1014 ft | 4 kts | 110° |
| 2026-04-12 03:08 | 39.29727 | -94.72106 | 1014 ft | 4 kts | 140° |
| 2026-04-12 03:08 | 39.29745 | -94.72116 | 1014 ft | 1 kts | 193° |
| 2026-04-12 03:08 | 39.29749 | -94.72115 | 1014 ft | 0 kts | 193° |
| 2026-04-12 03:10 | 39.29747 | -94.72115 | 1014 ft | 1 kts | 193° |
| 2026-04-12 03:11 | 39.29733 | -94.72120 | 1014 ft | 3 kts | 193° |
| 2026-04-12 03:11 | 39.29678 | -94.72147 | 1014 ft | 13 kts | 215° |
| 2026-04-12 03:11 | 39.29607 | -94.72231 | 1014 ft | 14 kts | 223° |
| 2026-04-12 03:11 | 39.29531 | -94.72321 | 1014 ft | 15 kts | 223° |
| 2026-04-12 03:12 | 39.29451 | -94.72351 | 1014 ft | 13 kts | 165° |
| 2026-04-12 03:12 | 39.29390 | -94.72332 | 1014 ft | 14 kts | 167° |
| 2026-04-12 03:12 | 39.29291 | -94.72300 | 1014 ft | 14 kts | 154° |
| 2026-04-12 03:12 | 39.29258 | -94.72187 | 1015 ft | 15 kts | 95° |
| 2026-04-12 03:13 | 39.29245 | -94.72049 | 1015 ft | 16 kts | 96° |
| 2026-04-12 03:13 | 39.29233 | -94.71899 | 1015 ft | 18 kts | 95° |
| 2026-04-12 03:13 | 39.29220 | -94.71736 | 1015 ft | 19 kts | 96° |
| 2026-04-12 03:13 | 39.29200 | -94.71495 | 1015 ft | 21 kts | 97° |
| 2026-04-12 03:14 | 39.29190 | -94.71367 | 1015 ft | 22 kts | 96° |
| 2026-04-12 03:14 | 39.29173 | -94.71170 | 1014 ft | 22 kts | 96° |
| 2026-04-12 03:14 | 39.29156 | -94.70966 | 1014 ft | 23 kts | 96° |
| 2026-04-12 03:14 | 39.29143 | -94.70800 | 1014 ft | 14 kts | 85° |
| 2026-04-12 03:15 | 39.29220 | -94.70746 | 1014 ft | 14 kts | 11° |
| 2026-04-12 03:15 | 39.29331 | -94.70713 | 1014 ft | 19 kts | 13° |
| 2026-04-12 03:15 | 39.29471 | -94.70671 | 1014 ft | 23 kts | 13° |
| 2026-04-12 03:15 | 39.29635 | -94.70623 | 1014 ft | 25 kts | 13° |
| 2026-04-12 03:16 | 39.29804 | -94.70573 | 1015 ft | 25 kts | 13° |
| 2026-04-12 03:16 | 39.29975 | -94.70522 | 1015 ft | 25 kts | 13° |
| 2026-04-12 03:16 | 39.30149 | -94.70470 | 1014 ft | 26 kts | 12° |
| 2026-04-12 03:16 | 39.30326 | -94.70417 | 1015 ft | 26 kts | 13° |
| 2026-04-12 03:17 | 39.30502 | -94.70365 | 1014 ft | 24 kts | 13° |
| 2026-04-12 03:17 | 39.30654 | -94.70321 | 1015 ft | 15 kts | 13° |
| 2026-04-12 03:17 | 39.30690 | -94.70227 | 1016 ft | 13 kts | 106° |
| 2026-04-12 03:17 | 39.30646 | -94.70162 | 1016 ft | 10 kts | 181° |
| 2026-04-12 03:18 | 39.30569 | -94.70183 | 1017 ft | 17 kts | 192° |
| 2026-04-12 03:18 | 39.30186 | -94.70296 | 1013 ft | 96 kts | 193° |
| 2026-04-12 03:18 | 39.29324 | -94.70551 | 1108 ft | 145 kts | 193° |
| 2026-04-12 03:18 | 39.28362 | -94.70834 | 1860 ft | 139 kts | 193° |
| 2026-04-12 03:19 | 39.27430 | -94.71103 | 2615 ft | 136 kts | 192° |
| 2026-04-12 03:19 | 39.26462 | -94.71386 | 3108 ft | 152 kts | 192° |
| 2026-04-12 03:19 | 39.25314 | -94.71376 | 3447 ft | 182 kts | 169° |
| 2026-04-12 03:19 | 39.24004 | -94.70994 | 3999 ft | 205 kts | 172° |
| 2026-04-12 03:20 | 39.22526 | -94.70638 | 4576 ft | 228 kts | 173° |
| 2026-04-12 03:20 | 39.20915 | -94.70286 | 5400 ft | 240 kts | 173° |
| 2026-04-12 03:20 | 39.19254 | -94.69927 | 6399 ft | 244 kts | 174° |
| 2026-04-12 03:20 | 39.17562 | -94.69556 | 7401 ft | 249 kts | 174° |
| 2026-04-12 03:21 | 39.15832 | -94.69170 | 8338 ft | 255 kts | 174° |
| 2026-04-12 03:21 | 39.14063 | -94.68770 | 9199 ft | 262 kts | 174° |
| 2026-04-12 03:21 | 39.12254 | -94.68354 | 10093 ft | 267 kts | 174° |
| 2026-04-12 03:21 | 39.10376 | -94.67922 | 10548 ft | 290 kts | 174° |
| 2026-04-12 03:22 | 39.08280 | -94.67443 | 10984 ft | 311 kts | 173° |
| 2026-04-12 03:22 | 39.06118 | -94.66942 | 11708 ft | 320 kts | 173° |
| 2026-04-12 03:22 | 39.03905 | -94.66426 | 12505 ft | 327 kts | 173° |
| 2026-04-12 03:22 | 39.01675 | -94.65905 | 13274 ft | 333 kts | 173° |
| 2026-04-12 03:23 | 38.99382 | -94.65368 | 14068 ft | 338 kts | 174° |
| 2026-04-12 03:23 | 38.97052 | -94.64826 | 14840 ft | 342 kts | 174° |
| 2026-04-12 03:23 | 38.94695 | -94.64282 | 15583 ft | 347 kts | 174° |
| 2026-04-12 03:23 | 38.92307 | -94.63731 | 16311 ft | 351 kts | 174° |
| 2026-04-12 03:24 | 38.89885 | -94.63171 | 17025 ft | 355 kts | 174° |
| 2026-04-12 03:24 | 38.87437 | -94.62603 | 17722 ft | 360 kts | 174° |
| 2026-04-12 03:24 | 38.84961 | -94.62027 | 18398 ft | 364 kts | 174° |
| 2026-04-12 03:24 | 38.82457 | -94.61443 | 19054 ft | 368 kts | 174° |
| 2026-04-12 03:25 | 38.79923 | -94.60858 | 19708 ft | 372 kts | 174° |
| 2026-04-12 03:25 | 38.77363 | -94.60271 | 20346 ft | 377 kts | 174° |
| 2026-04-12 03:25 | 38.74765 | -94.59679 | 20969 ft | 381 kts | 174° |
| 2026-04-12 03:25 | 38.72142 | -94.59083 | 21567 ft | 386 kts | 174° |
| 2026-04-12 03:26 | 38.69484 | -94.58472 | 22158 ft | 390 kts | 174° |
| 2026-04-12 03:26 | 38.66803 | -94.57851 | 22733 ft | 394 kts | 174° |
| 2026-04-12 03:26 | 38.64093 | -94.57227 | 23286 ft | 398 kts | 174° |
| 2026-04-12 03:26 | 38.61349 | -94.56600 | 23830 ft | 402 kts | 174° |
| 2026-04-12 03:27 | 38.58585 | -94.55971 | 24339 ft | 406 kts | 174° |
| 2026-04-12 03:27 | 38.55792 | -94.55334 | 24841 ft | 409 kts | 174° |
| 2026-04-12 03:27 | 38.52973 | -94.54693 | 25310 ft | 413 kts | 175° |
| 2026-04-12 03:27 | 38.50129 | -94.54052 | 25790 ft | 417 kts | 175° |
| 2026-04-12 03:28 | 38.47265 | -94.53403 | 26247 ft | 420 kts | 175° |
| 2026-04-12 03:28 | 38.44377 | -94.52750 | 26690 ft | 423 kts | 175° |
| 2026-04-12 03:28 | 38.41471 | -94.52090 | 27122 ft | 426 kts | 175° |
| 2026-04-12 03:28 | 38.38543 | -94.51415 | 27543 ft | 429 kts | 175° |
| 2026-04-12 03:29 | 38.35591 | -94.50735 | 27955 ft | 432 kts | 175° |
| 2026-04-12 03:29 | 38.32620 | -94.50052 | 28365 ft | 435 kts | 175° |
| 2026-04-12 03:29 | 38.29629 | -94.49348 | 28751 ft | 440 kts | 173° |
| 2026-04-12 03:29 | 38.26672 | -94.48211 | 29138 ft | 449 kts | 163° |
| 2026-04-12 03:30 | 38.23875 | -94.46473 | 29505 ft | 458 kts | 155° |
| 2026-04-12 03:30 | 38.21050 | -94.44462 | 29887 ft | 460 kts | 155° |
| 2026-04-12 03:30 | 38.18283 | -94.42493 | 30239 ft | 463 kts | 156° |
| 2026-04-12 03:30 | 38.15460 | -94.40491 | 30596 ft | 466 kts | 156° |
| 2026-04-12 03:31 | 38.12621 | -94.38484 | 30926 ft | 469 kts | 156° |
| 2026-04-12 03:31 | 38.09763 | -94.36465 | 31248 ft | 471 kts | 156° |
| 2026-04-12 03:31 | 38.06884 | -94.34434 | 31559 ft | 474 kts | 156° |
| 2026-04-12 03:31 | 38.03991 | -94.32394 | 31854 ft | 477 kts | 156° |
| 2026-04-12 03:32 | 38.01080 | -94.30345 | 32145 ft | 480 kts | 156° |
| 2026-04-12 03:32 | 37.98155 | -94.28289 | 32517 ft | 480 kts | 156° |
| 2026-04-12 03:32 | 37.95240 | -94.26239 | 32937 ft | 479 kts | 156° |
| 2026-04-12 03:32 | 37.92327 | -94.24182 | 33348 ft | 479 kts | 156° |
| 2026-04-12 03:33 | 37.89419 | -94.22128 | 33744 ft | 479 kts | 156° |
| 2026-04-12 03:33 | 37.86510 | -94.20073 | 34133 ft | 478 kts | 156° |
| 2026-04-12 03:33 | 37.83602 | -94.18027 | 34527 ft | 478 kts | 156° |
| 2026-04-12 03:33 | 37.80694 | -94.15984 | 34907 ft | 478 kts | 157° |
| 2026-04-12 03:34 | 37.77784 | -94.13950 | 35276 ft | 478 kts | 157° |
| 2026-04-12 03:34 | 37.74875 | -94.11920 | 35611 ft | 478 kts | 157° |
| 2026-04-12 03:34 | 37.71961 | -94.09889 | 35963 ft | 478 kts | 157° |
| 2026-04-12 03:34 | 37.69048 | -94.07857 | 36280 ft | 478 kts | 157° |
| 2026-04-12 03:35 | 37.66132 | -94.05826 | 36579 ft | 479 kts | 158° |
| 2026-04-12 03:35 | 37.63214 | -94.03795 | 36867 ft | 479 kts | 158° |
| 2026-04-12 03:35 | 37.60289 | -94.01759 | 37175 ft | 479 kts | 158° |
| 2026-04-12 03:35 | 37.57374 | -93.99731 | 37509 ft | 479 kts | 158° |
| 2026-04-12 03:36 | 37.54462 | -93.97707 | 37812 ft | 478 kts | 158° |
| 2026-04-12 03:36 | 37.51552 | -93.95686 | 38087 ft | 478 kts | 158° |
| 2026-04-12 03:36 | 37.48633 | -93.93658 | 38372 ft | 478 kts | 158° |
| 2026-04-12 03:36 | 37.45721 | -93.91634 | 38657 ft | 478 kts | 158° |
| 2026-04-12 03:37 | 37.42813 | -93.89616 | 38941 ft | 477 kts | 158° |
| 2026-04-12 03:37 | 37.39904 | -93.87602 | 39120 ft | 478 kts | 158° |
| 2026-04-12 03:37 | 37.34089 | -93.83581 | 39165 ft | 477 kts | 158° |
| 2026-04-12 03:38 | 37.28273 | -93.79566 | 39165 ft | 476 kts | 158° |
| 2026-04-12 03:38 | 37.22460 | -93.75567 | 39164 ft | 477 kts | 158° |
| 2026-04-12 03:39 | 37.16639 | -93.71576 | 39174 ft | 477 kts | 158° |
| 2026-04-12 03:39 | 37.10827 | -93.67587 | 39172 ft | 476 kts | 158° |
| 2026-04-12 03:40 | 37.05014 | -93.63598 | 39175 ft | 476 kts | 158° |
| 2026-04-12 03:40 | 36.99198 | -93.59616 | 39173 ft | 477 kts | 158° |
| 2026-04-12 03:41 | 36.93378 | -93.55642 | 39177 ft | 477 kts | 158° |
| 2026-04-12 03:41 | 36.87593 | -93.51703 | 39182 ft | 477 kts | 158° |
| 2026-04-12 03:42 | 36.81770 | -93.47745 | 39196 ft | 477 kts | 158° |
| 2026-04-12 03:42 | 36.75934 | -93.43786 | 39194 ft | 477 kts | 158° |
| 2026-04-12 03:43 | 36.70108 | -93.39836 | 39188 ft | 477 kts | 158° |
| 2026-04-12 03:43 | 36.64275 | -93.35885 | 39195 ft | 477 kts | 158° |
| 2026-04-12 03:44 | 36.58446 | -93.31953 | 39195 ft | 477 kts | 158° |
| 2026-04-12 03:44 | 36.52610 | -93.28015 | 39197 ft | 477 kts | 157° |
| 2026-04-12 03:45 | 36.46774 | -93.24085 | 39202 ft | 477 kts | 157° |
| 2026-04-12 03:45 | 36.40934 | -93.20162 | 39210 ft | 477 kts | 157° |
| 2026-04-12 03:46 | 36.35094 | -93.16240 | 39214 ft | 477 kts | 157° |
| 2026-04-12 03:46 | 36.29253 | -93.12323 | 39215 ft | 477 kts | 157° |
| 2026-04-12 03:47 | 36.23407 | -93.08410 | 39216 ft | 477 kts | 157° |
| 2026-04-12 03:47 | 36.17558 | -93.04514 | 39217 ft | 478 kts | 157° |
| 2026-04-12 03:48 | 36.11704 | -93.00614 | 39217 ft | 478 kts | 157° |
| 2026-04-12 03:48 | 36.05852 | -92.96718 | 39218 ft | 478 kts | 157° |
| 2026-04-12 03:49 | 35.99992 | -92.92824 | 39215 ft | 478 kts | 157° |
| 2026-04-12 03:49 | 35.94128 | -92.88942 | 39217 ft | 479 kts | 156° |
| 2026-04-12 03:50 | 35.88257 | -92.85062 | 39217 ft | 479 kts | 157° |
| 2026-04-12 03:50 | 35.82390 | -92.81177 | 39218 ft | 479 kts | 156° |
| 2026-04-12 03:51 | 35.76512 | -92.77301 | 39219 ft | 479 kts | 156° |
| 2026-04-12 03:51 | 35.70629 | -92.73429 | 39221 ft | 480 kts | 156° |
| 2026-04-12 03:52 | 35.64779 | -92.69581 | 39217 ft | 480 kts | 156° |
| 2026-04-12 03:52 | 35.58848 | -92.65692 | 39221 ft | 480 kts | 156° |
| 2026-04-12 03:53 | 35.52989 | -92.61860 | 39226 ft | 480 kts | 156° |
| 2026-04-12 03:53 | 35.47096 | -92.58004 | 39229 ft | 480 kts | 156° |
| 2026-04-12 03:54 | 35.41196 | -92.54153 | 39230 ft | 480 kts | 156° |
| 2026-04-12 03:54 | 35.35261 | -92.50275 | 39230 ft | 480 kts | 156° |
| 2026-04-12 03:55 | 35.29404 | -92.46459 | 39228 ft | 480 kts | 156° |
| 2026-04-12 03:55 | 35.23503 | -92.42628 | 39224 ft | 481 kts | 156° |
| 2026-04-12 03:56 | 35.17554 | -92.38774 | 39228 ft | 480 kts | 156° |
| 2026-04-12 03:56 | 35.11725 | -92.35005 | 39226 ft | 480 kts | 156° |
| 2026-04-12 03:57 | 35.06813 | -92.31829 | 39222 ft | 480 kts | 156° |
| 2026-04-12 03:57 | 35.00907 | -92.28013 | 39219 ft | 480 kts | 156° |
| 2026-04-12 03:58 | 34.94995 | -92.24210 | 39219 ft | 480 kts | 157° |
| 2026-04-12 03:58 | 34.88126 | -92.19787 | 39220 ft | 481 kts | 156° |
| 2026-04-12 03:59 | 34.83166 | -92.16602 | 39221 ft | 481 kts | 156° |
| 2026-04-12 03:59 | 34.77534 | -92.12121 | 39222 ft | 486 kts | 147° |
| 2026-04-12 04:00 | 34.72097 | -92.07238 | 39224 ft | 486 kts | 147° |
| 2026-04-12 04:00 | 34.66647 | -92.02367 | 39228 ft | 486 kts | 147° |
| 2026-04-12 04:01 | 34.61219 | -91.97556 | 39227 ft | 486 kts | 147° |
| 2026-04-12 04:01 | 34.55714 | -91.92682 | 39228 ft | 487 kts | 147° |
| 2026-04-12 04:02 | 34.47553 | -91.85446 | 39228 ft | 487 kts | 147° |
| 2026-04-12 04:03 | 34.42083 | -91.80603 | 39235 ft | 487 kts | 147° |
| 2026-04-12 04:03 | 34.36612 | -91.75754 | 39237 ft | 487 kts | 147° |
| 2026-04-12 04:04 | 34.31134 | -91.70926 | 39240 ft | 487 kts | 147° |
| 2026-04-12 04:04 | 34.25653 | -91.66103 | 39245 ft | 487 kts | 147° |
| 2026-04-12 04:05 | 34.20175 | -91.61290 | 39244 ft | 487 kts | 147° |
| 2026-04-12 04:05 | 34.14688 | -91.56476 | 39244 ft | 487 kts | 147° |
| 2026-04-12 04:06 | 34.09204 | -91.51672 | 39248 ft | 487 kts | 147° |
| 2026-04-12 04:06 | 34.03719 | -91.46871 | 39250 ft | 487 kts | 147° |
| 2026-04-12 04:07 | 33.98235 | -91.42081 | 39252 ft | 487 kts | 147° |
| 2026-04-12 04:07 | 33.92749 | -91.37294 | 39255 ft | 487 kts | 147° |
| 2026-04-12 04:08 | 33.87260 | -91.32519 | 39255 ft | 487 kts | 147° |
| 2026-04-12 04:08 | 33.81765 | -91.27756 | 39252 ft | 487 kts | 147° |
| 2026-04-12 04:09 | 33.76271 | -91.22988 | 39253 ft | 487 kts | 147° |
| 2026-04-12 04:09 | 33.70778 | -91.18227 | 39249 ft | 487 kts | 147° |
| 2026-04-12 04:10 | 33.65280 | -91.13473 | 39249 ft | 487 kts | 147° |
| 2026-04-12 04:10 | 33.59782 | -91.08719 | 39251 ft | 487 kts | 147° |
| 2026-04-12 04:11 | 33.54279 | -91.03976 | 39255 ft | 487 kts | 147° |
| 2026-04-12 04:11 | 33.48772 | -90.99242 | 39251 ft | 487 kts | 147° |
| 2026-04-12 04:12 | 33.43262 | -90.94512 | 39255 ft | 487 kts | 147° |
| 2026-04-12 04:12 | 33.37747 | -90.89780 | 39253 ft | 488 kts | 147° |
| 2026-04-12 04:13 | 33.32230 | -90.85055 | 39252 ft | 488 kts | 147° |
| 2026-04-12 04:13 | 33.26721 | -90.80339 | 39250 ft | 487 kts | 147° |
| 2026-04-12 04:14 | 33.21248 | -90.75658 | 39255 ft | 487 kts | 147° |
| 2026-04-12 04:14 | 33.15729 | -90.70953 | 39259 ft | 487 kts | 147° |
| 2026-04-12 04:15 | 33.10214 | -90.66256 | 39259 ft | 487 kts | 147° |
| 2026-04-12 04:15 | 33.04695 | -90.61571 | 39265 ft | 487 kts | 147° |
| 2026-04-12 04:16 | 32.99167 | -90.56892 | 39266 ft | 487 kts | 147° |
| 2026-04-12 04:16 | 32.93638 | -90.52207 | 39264 ft | 487 kts | 147° |
| 2026-04-12 04:17 | 32.88118 | -90.47534 | 39267 ft | 487 kts | 147° |
| 2026-04-12 04:17 | 32.82588 | -90.42864 | 39267 ft | 487 kts | 147° |
| 2026-04-12 04:18 | 32.77063 | -90.38195 | 39271 ft | 487 kts | 147° |
| 2026-04-12 04:18 | 32.71537 | -90.33535 | 39271 ft | 487 kts | 147° |
| 2026-04-12 04:19 | 32.66006 | -90.28896 | 39268 ft | 487 kts | 147° |
| 2026-04-12 04:19 | 32.60473 | -90.24262 | 39270 ft | 487 kts | 147° |
| 2026-04-12 04:20 | 32.54937 | -90.19622 | 39269 ft | 487 kts | 147° |
| 2026-04-12 04:20 | 32.49410 | -90.14991 | 39274 ft | 487 kts | 147° |
| 2026-04-12 04:21 | 32.43900 | -90.10323 | 39263 ft | 488 kts | 143° |
| 2026-04-12 04:21 | 32.38980 | -90.04774 | 39266 ft | 489 kts | 136° |
| 2026-04-12 04:22 | 32.34172 | -89.99139 | 39269 ft | 489 kts | 137° |
| 2026-04-12 04:22 | 32.29322 | -89.93489 | 39272 ft | 490 kts | 137° |
| 2026-04-12 04:23 | 32.24474 | -89.87834 | 39277 ft | 490 kts | 137° |
| 2026-04-12 04:23 | 32.19633 | -89.82173 | 39275 ft | 490 kts | 137° |
| 2026-04-12 04:24 | 32.14786 | -89.76527 | 39275 ft | 489 kts | 137° |
| 2026-04-12 04:24 | 32.09932 | -89.70896 | 39278 ft | 489 kts | 137° |
| 2026-04-12 04:25 | 32.05070 | -89.65269 | 39285 ft | 490 kts | 137° |
| 2026-04-12 04:25 | 32.00203 | -89.59641 | 39293 ft | 490 kts | 137° |
| 2026-04-12 04:26 | 31.95343 | -89.54007 | 39297 ft | 490 kts | 137° |
| 2026-04-12 04:26 | 31.90483 | -89.48380 | 39299 ft | 490 kts | 137° |
| 2026-04-12 04:27 | 31.85610 | -89.42759 | 39298 ft | 490 kts | 137° |
| 2026-04-12 04:27 | 31.80737 | -89.37156 | 39302 ft | 490 kts | 137° |
| 2026-04-12 04:28 | 31.75856 | -89.31549 | 39304 ft | 491 kts | 137° |
| 2026-04-12 04:28 | 31.70969 | -89.25943 | 39304 ft | 491 kts | 137° |
| 2026-04-12 04:29 | 31.66085 | -89.20338 | 39306 ft | 491 kts | 137° |
| 2026-04-12 04:29 | 31.61195 | -89.14747 | 39307 ft | 491 kts | 137° |
| 2026-04-12 04:30 | 31.56292 | -89.09160 | 39307 ft | 491 kts | 137° |
| 2026-04-12 04:30 | 31.51395 | -89.03575 | 39309 ft | 492 kts | 137° |
| 2026-04-12 04:31 | 31.46491 | -88.97983 | 39313 ft | 492 kts | 137° |
| 2026-04-12 04:31 | 31.41578 | -88.92400 | 39313 ft | 492 kts | 137° |
| 2026-04-12 04:32 | 31.36669 | -88.86827 | 39310 ft | 491 kts | 137° |
| 2026-04-12 04:32 | 31.31758 | -88.81256 | 39308 ft | 491 kts | 137° |
| 2026-04-12 04:33 | 31.26839 | -88.75691 | 38661 ft | 495 kts | 137° |
| 2026-04-12 04:33 | 31.24352 | -88.72881 | 37422 ft | 500 kts | 136° |
| 2026-04-12 04:33 | 31.21847 | -88.70050 | 36270 ft | 502 kts | 136° |
| 2026-04-12 04:33 | 31.19344 | -88.67223 | 35281 ft | 501 kts | 136° |
| 2026-04-12 04:34 | 31.16842 | -88.64403 | 34080 ft | 499 kts | 136° |
| 2026-04-12 04:34 | 31.14339 | -88.61586 | 32747 ft | 499 kts | 136° |
| 2026-04-12 04:34 | 31.11853 | -88.58786 | 31920 ft | 491 kts | 136° |
| 2026-04-12 04:34 | 31.09418 | -88.56046 | 31293 ft | 482 kts | 136° |
| 2026-04-12 04:35 | 31.07028 | -88.53360 | 30596 ft | 473 kts | 136° |
| 2026-04-12 04:35 | 31.04680 | -88.50721 | 29918 ft | 464 kts | 136° |
| 2026-04-12 04:35 | 31.02368 | -88.48124 | 29264 ft | 460 kts | 136° |
| 2026-04-12 04:35 | 31.00070 | -88.45545 | 28599 ft | 457 kts | 136° |
| 2026-04-12 04:36 | 30.97785 | -88.42986 | 27948 ft | 454 kts | 136° |
| 2026-04-12 04:36 | 30.95520 | -88.40443 | 27296 ft | 450 kts | 135° |
| 2026-04-12 04:36 | 30.93499 | -88.37678 | 26654 ft | 447 kts | 125° |
| 2026-04-12 04:36 | 30.91927 | -88.34592 | 26081 ft | 440 kts | 115° |
| 2026-04-12 04:37 | 30.90828 | -88.31343 | 25514 ft | 434 kts | 107° |
| 2026-04-12 04:37 | 30.89895 | -88.28025 | 24966 ft | 429 kts | 107° |
| 2026-04-12 04:37 | 30.88971 | -88.24748 | 24436 ft | 424 kts | 108° |
| 2026-04-12 04:37 | 30.88054 | -88.21505 | 23909 ft | 419 kts | 108° |
| 2026-04-12 04:38 | 30.87148 | -88.18296 | 23400 ft | 415 kts | 108° |
| 2026-04-12 04:38 | 30.86249 | -88.15123 | 22899 ft | 411 kts | 108° |
| 2026-04-12 04:38 | 30.85354 | -88.11973 | 22402 ft | 408 kts | 108° |
| 2026-04-12 04:38 | 30.84464 | -88.08846 | 21903 ft | 405 kts | 108° |
| 2026-04-12 04:39 | 30.83582 | -88.05751 | 21393 ft | 402 kts | 108° |
| 2026-04-12 04:39 | 30.82702 | -88.02678 | 20873 ft | 399 kts | 108° |
| 2026-04-12 04:39 | 30.81829 | -87.99627 | 20344 ft | 396 kts | 108° |
| 2026-04-12 04:39 | 30.80964 | -87.96598 | 19817 ft | 393 kts | 108° |
| 2026-04-12 04:40 | 30.80103 | -87.93593 | 19274 ft | 390 kts | 108° |
| 2026-04-12 04:40 | 30.79248 | -87.90607 | 18728 ft | 387 kts | 108° |
| 2026-04-12 04:40 | 30.78400 | -87.87644 | 18179 ft | 385 kts | 108° |
| 2026-04-12 04:40 | 30.77556 | -87.84704 | 17644 ft | 382 kts | 108° |
| 2026-04-12 04:41 | 30.76719 | -87.81797 | 17117 ft | 378 kts | 109° |
| 2026-04-12 04:41 | 30.75606 | -87.79048 | 16595 ft | 375 kts | 121° |
| 2026-04-12 04:41 | 30.74117 | -87.76579 | 16076 ft | 371 kts | 126° |
| 2026-04-12 04:41 | 30.73112 | -87.74978 | 15731 ft | 369 kts | 126° |
| 2026-04-12 04:42 | 30.71612 | -87.72579 | 15217 ft | 365 kts | 126° |
| 2026-04-12 04:42 | 30.70128 | -87.70198 | 14706 ft | 361 kts | 125° |
| 2026-04-12 04:42 | 30.68662 | -87.67841 | 14030 ft | 362 kts | 125° |
| 2026-04-12 04:43 | 30.65716 | -87.63114 | 12866 ft | 357 kts | 125° |
| 2026-04-12 04:43 | 30.64267 | -87.60793 | 12342 ft | 352 kts | 125° |
| 2026-04-12 04:43 | 30.62840 | -87.58508 | 11806 ft | 348 kts | 125° |
| 2026-04-12 04:43 | 30.61426 | -87.56248 | 11276 ft | 343 kts | 125° |
| 2026-04-12 04:44 | 30.60033 | -87.54022 | 10744 ft | 339 kts | 125° |
| 2026-04-12 04:44 | 30.58654 | -87.51825 | 10330 ft | 331 kts | 125° |
| 2026-04-12 04:44 | 30.57332 | -87.49721 | 10203 ft | 315 kts | 125° |
| 2026-04-12 04:44 | 30.56069 | -87.47713 | 10085 ft | 301 kts | 125° |
| 2026-04-12 04:45 | 30.54859 | -87.45786 | 9905 ft | 290 kts | 125° |
| 2026-04-12 04:45 | 30.53682 | -87.43911 | 9510 ft | 287 kts | 124° |
| 2026-04-12 04:45 | 30.52508 | -87.42037 | 9136 ft | 284 kts | 124° |
| 2026-04-12 04:45 | 30.51353 | -87.40197 | 8752 ft | 281 kts | 124° |
| 2026-04-12 04:46 | 30.50204 | -87.38371 | 8311 ft | 279 kts | 124° |
| 2026-04-12 04:46 | 30.49028 | -87.36603 | 7737 ft | 276 kts | 133° |
| 2026-04-12 04:46 | 30.47430 | -87.35386 | 7080 ft | 277 kts | 158° |
| 2026-04-12 04:46 | 30.45535 | -87.35071 | 6408 ft | 279 kts | 183° |
| 2026-04-12 04:47 | 30.43685 | -87.35732 | 5829 ft | 280 kts | 204° |
| 2026-04-12 04:47 | 30.41960 | -87.36782 | 5281 ft | 280 kts | 205° |
| 2026-04-12 04:47 | 30.40235 | -87.37838 | 4826 ft | 279 kts | 206° |
| 2026-04-12 04:47 | 30.38520 | -87.38884 | 4258 ft | 281 kts | 205° |
| 2026-04-12 04:48 | 30.36833 | -87.39912 | 4115 ft | 264 kts | 205° |
| 2026-04-12 04:48 | 30.35268 | -87.40864 | 4056 ft | 246 kts | 205° |
| 2026-04-12 04:48 | 30.33796 | -87.41757 | 3968 ft | 233 kts | 205° |
| 2026-04-12 04:48 | 30.32396 | -87.42606 | 3868 ft | 222 kts | 205° |
| 2026-04-12 04:49 | 30.31059 | -87.43429 | 3740 ft | 214 kts | 207° |
| 2026-04-12 04:49 | 30.29935 | -87.44546 | 3516 ft | 214 kts | 230° |
| 2026-04-12 04:49 | 30.29237 | -87.46048 | 3300 ft | 212 kts | 251° |
| 2026-04-12 04:49 | 30.29041 | -87.47735 | 3049 ft | 213 kts | 269° |
| 2026-04-12 04:50 | 30.29043 | -87.49424 | 2775 ft | 213 kts | 269° |
| 2026-04-12 04:50 | 30.29044 | -87.51144 | 2497 ft | 214 kts | 270° |
| 2026-04-12 04:50 | 30.29043 | -87.52864 | 2211 ft | 212 kts | 270° |
| 2026-04-12 04:50 | 30.29043 | -87.54525 | 1965 ft | 199 kts | 270° |
| 2026-04-12 04:51 | 30.29042 | -87.56084 | 1676 ft | 188 kts | 270° |
| 2026-04-12 04:51 | 30.29040 | -87.57542 | 1442 ft | 172 kts | 270° |
| 2026-04-12 04:51 | 30.29039 | -87.58829 | 1224 ft | 149 kts | 270° |
| 2026-04-12 04:51 | 30.29038 | -87.59965 | 1037 ft | 135 kts | 269° |
| 2026-04-12 04:52 | 30.29036 | -87.61029 | 853 ft | 129 kts | 270° |
| 2026-04-12 04:52 | 30.29034 | -87.62058 | 693 ft | 127 kts | 271° |
| 2026-04-12 04:52 | 30.29034 | -87.63069 | 523 ft | 125 kts | 270° |
| 2026-04-12 04:52 | 30.29033 | -87.64075 | 363 ft | 126 kts | 269° |
| 2026-04-12 04:53 | 30.29031 | -87.65086 | 187 ft | 125 kts | 270° |
| 2026-04-12 04:53 | 30.29033 | -87.66089 | 34 ft | 124 kts | 270° |
| 2026-04-12 04:53 | 30.29031 | -87.67487 | 24 ft | 48 kts | 270° |
| 2026-04-12 04:54 | 30.29031 | -87.67810 | 27 ft | 28 kts | 270° |
| 2026-04-12 04:54 | 30.29031 | -87.67965 | 26 ft | 13 kts | 269° |
| 2026-04-12 04:54 | 30.28971 | -87.68022 | 25 ft | 14 kts | 184° |
| 2026-04-12 04:54 | 30.28918 | -87.67985 | 25 ft | 10 kts | 97° |
| 2026-04-12 04:55 | 30.28918 | -87.67899 | 25 ft | 12 kts | 90° |
| 2026-04-12 04:55 | 30.28918 | -87.67800 | 25 ft | 13 kts | 90° |
| 2026-04-12 04:55 | 30.28919 | -87.67689 | 26 ft | 15 kts | 89° |
| 2026-04-12 04:55 | 30.28919 | -87.67563 | 29 ft | 17 kts | 90° |
| 2026-04-12 04:56 | 30.28920 | -87.67425 | 25 ft | 17 kts | 89° |
| 2026-04-12 04:56 | 30.28920 | -87.67306 | 25 ft | 15 kts | 90° |
| 2026-04-12 04:56 | 30.28914 | -87.67215 | 27 ft | 8 kts | 122° |
| 2026-04-12 04:56 | 30.28861 | -87.67193 | 29 ft | 8 kts | 139° |
| 2026-04-12 04:57 | 30.28824 | -87.67166 | 27 ft | 6 kts | 180° |
| 2026-04-12 04:57 | 30.28810 | -87.67167 | 25 ft | 0 kts | 181° |